createdAt,value
2022-11-02T00:00:32.144Z,10.93
2022-11-02T00:03:00.239Z,10.91
2022-11-02T00:05:28.156Z,10.89
2022-11-02T00:07:56.788Z,10.85
2022-11-02T00:10:25.531Z,10.84
2022-11-02T00:12:54.018Z,10.79
2022-11-02T00:15:22.017Z,10.79
2022-11-02T00:17:54.663Z,10.80
2022-11-02T00:20:22.642Z,10.82
2022-11-02T00:22:54.226Z,10.84
2022-11-02T00:25:24.664Z,10.85
2022-11-02T00:27:52.455Z,10.87
2022-11-02T00:30:20.762Z,10.86
2022-11-02T00:32:48.382Z,10.86
2022-11-02T00:35:16.337Z,10.86
2022-11-02T00:37:43.967Z,10.89
2022-11-02T00:40:12.403Z,10.90
2022-11-02T00:42:40.047Z,10.89
2022-11-02T00:45:08.784Z,10.89
2022-11-02T00:47:36.558Z,10.82
2022-11-02T00:50:04.919Z,10.84
2022-11-02T00:52:32.762Z,10.89
2022-11-02T00:55:00.367Z,10.92
2022-11-02T00:57:27.962Z,10.98
2022-11-02T00:59:55.613Z,11.02
2022-11-02T01:02:23.430Z,11.06
2022-11-02T01:04:51.160Z,11.11
2022-11-02T01:07:18.769Z,11.10
2022-11-02T01:09:46.379Z,11.13
2022-11-02T01:12:13.990Z,11.12
2022-11-02T01:14:41.613Z,11.11
2022-11-02T01:17:09.218Z,11.11
2022-11-02T01:19:36.840Z,11.10
2022-11-02T01:22:04.876Z,11.13
2022-11-02T01:24:32.549Z,11.16
2022-11-02T01:27:00.179Z,11.21
2022-11-02T01:29:27.843Z,11.25
2022-11-02T01:31:55.742Z,11.27
2022-11-02T01:34:23.626Z,11.30
2022-11-02T01:36:51.492Z,11.35
2022-11-02T01:39:19.246Z,11.39
2022-11-02T01:41:51.381Z,11.45
2022-11-02T01:44:30.396Z,11.47
2022-11-02T01:47:20.716Z,11.49
2022-11-02T01:49:52.101Z,11.50
2022-11-02T01:52:29.243Z,11.52
2022-11-02T01:55:01.542Z,11.51
2022-11-02T01:57:30.119Z,11.53
2022-11-02T02:00:18.005Z,11.56
2022-11-02T02:03:17.906Z,11.58
2022-11-02T02:05:56.010Z,11.61
2022-11-02T02:08:26.327Z,11.65
2022-11-02T02:10:57.853Z,11.68
2022-11-02T02:13:28.040Z,11.71
2022-11-02T02:16:03.571Z,11.74
2022-11-02T02:18:37.166Z,11.75
2022-11-02T02:21:23.535Z,11.73
2022-11-02T02:23:56.678Z,11.76
2022-11-02T02:26:39.133Z,11.78
2022-11-02T02:29:19.972Z,11.80
2022-11-02T02:32:08.023Z,11.82
2022-11-02T02:34:39.116Z,11.84
2022-11-02T02:37:15.852Z,11.85
2022-11-02T02:39:52.699Z,11.86
2022-11-02T02:42:45.555Z,11.87
2022-11-02T02:45:21.549Z,11.86
2022-11-02T02:47:55.809Z,11.89
2022-11-02T02:50:28.703Z,11.87
2022-11-02T02:53:00.047Z,11.89
2022-11-02T02:55:36.924Z,11.92
2022-11-02T02:58:07.926Z,11.92
2022-11-02T03:00:37.294Z,11.93
2022-11-02T03:03:06.540Z,11.94
2022-11-02T03:05:38.416Z,11.95
2022-11-02T03:08:10.022Z,11.96
2022-11-02T03:11:01.123Z,11.97
2022-11-02T03:13:53.433Z,11.98
2022-11-02T03:16:42.494Z,11.99
2022-11-02T03:19:18.858Z,11.99
2022-11-02T03:21:51.140Z,12.01
2022-11-02T03:24:31.454Z,12.00
2022-11-02T03:27:24.236Z,12.00
2022-11-02T03:30:05.439Z,12.01
2022-11-02T03:33:01.676Z,12.00
2022-11-02T03:35:35.235Z,11.99
2022-11-02T03:38:10.585Z,11.99
2022-11-02T03:40:46.375Z,11.99
2022-11-02T03:43:16.492Z,11.99
2022-11-02T03:45:50.722Z,11.98
2022-11-02T03:48:19.904Z,11.97
2022-11-02T03:50:51.483Z,11.97
2022-11-02T03:53:38.913Z,11.98
2022-11-02T03:56:15.560Z,11.96
2022-11-02T03:58:43.305Z,11.95
2022-11-02T04:01:12.329Z,11.94
2022-11-02T04:03:44.334Z,11.93
2022-11-02T04:06:13.877Z,11.93
2022-11-02T04:08:44.972Z,11.93
2022-11-02T04:11:31.817Z,11.96
2022-11-02T04:14:17.935Z,11.96
2022-11-02T04:16:45.865Z,11.98
2022-11-02T04:19:28.610Z,11.99
2022-11-02T04:22:17.578Z,12.01
2022-11-02T04:25:03.956Z,12.01
2022-11-02T04:27:33.539Z,12.01
2022-11-02T04:30:01.165Z,12.02
2022-11-02T04:32:47.329Z,12.00
2022-11-02T04:35:15.184Z,12.01
2022-11-02T04:38:02.866Z,12.02
2022-11-02T04:40:30.766Z,12.04
2022-11-02T04:42:58.362Z,12.06
2022-11-02T04:45:25.974Z,12.07
2022-11-02T04:47:53.702Z,12.08
2022-11-02T04:50:21.308Z,12.09
2022-11-02T04:52:59.266Z,12.09
2022-11-02T04:55:27.587Z,12.09
2022-11-02T04:57:55.234Z,12.11
2022-11-02T05:00:23.960Z,12.11
2022-11-02T05:02:52.246Z,12.11
2022-11-02T05:05:20.073Z,12.09
2022-11-02T05:07:47.705Z,12.09
2022-11-02T05:10:15.475Z,12.10
2022-11-02T05:12:43.388Z,12.10
2022-11-02T05:15:11.089Z,12.10
2022-11-02T05:17:38.790Z,12.11
2022-11-02T05:20:06.815Z,12.14
2022-11-02T05:22:34.501Z,12.14
2022-11-02T05:25:02.240Z,12.16
2022-11-02T05:27:29.845Z,12.15
2022-11-02T05:29:57.477Z,12.19
2022-11-02T05:32:25.076Z,12.21
2022-11-02T05:34:52.725Z,12.22
2022-11-02T05:37:20.318Z,12.22
2022-11-02T05:39:50.411Z,12.24
2022-11-02T05:42:18.384Z,12.27
2022-11-02T05:44:45.961Z,12.28
2022-11-02T05:47:13.579Z,12.32
2022-11-02T05:49:41.199Z,12.32
2022-11-02T05:52:08.774Z,12.35
2022-11-02T05:54:36.388Z,12.38
2022-11-02T05:57:04.050Z,12.39
2022-11-02T05:59:31.665Z,12.39
2022-11-02T06:01:59.465Z,12.41
2022-11-02T06:04:27.096Z,12.41
2022-11-02T06:06:54.914Z,12.39
2022-11-02T06:09:22.520Z,12.40
2022-11-02T06:11:50.099Z,12.41
2022-11-02T06:14:17.731Z,12.42
2022-11-02T06:16:45.302Z,12.44
2022-11-02T06:21:48.304Z,12.45
2022-11-02T06:24:16.376Z,12.48
2022-11-02T06:26:44.164Z,12.46
2022-11-02T06:29:11.869Z,12.47
2022-11-02T06:31:39.527Z,12.48
2022-11-02T06:34:07.270Z,12.47
2022-11-02T06:36:34.863Z,12.49
2022-11-02T06:39:02.575Z,12.48
2022-11-02T06:41:30.182Z,12.49
2022-11-02T06:43:57.767Z,12.50
2022-11-02T06:46:25.399Z,12.50
2022-11-02T06:48:53.207Z,12.52
2022-11-02T06:51:20.832Z,12.53
2022-11-02T06:53:48.511Z,12.52
2022-11-02T06:56:16.261Z,12.49
2022-11-02T06:58:43.961Z,12.51
2022-11-02T07:01:11.894Z,12.54
2022-11-02T07:03:39.710Z,12.56
2022-11-02T07:06:12.904Z,12.62
2022-11-02T07:08:41.960Z,12.64
2022-11-02T07:11:09.590Z,12.70
2022-11-02T07:13:38.871Z,12.74
2022-11-02T07:16:06.742Z,12.77
2022-11-02T07:18:34.359Z,12.79
2022-11-02T07:21:02.765Z,12.84
2022-11-02T07:23:30.696Z,12.84
2022-11-02T07:25:58.288Z,12.89
2022-11-02T07:28:25.983Z,12.92
2022-11-02T07:30:56.005Z,12.95
2022-11-02T07:33:24.056Z,12.97
2022-11-02T07:35:51.723Z,13.00
2022-11-02T07:38:19.401Z,13.04
2022-11-02T07:40:50.543Z,13.01
2022-11-02T07:43:18.192Z,12.96
2022-11-02T07:45:45.918Z,12.93
2022-11-02T07:48:13.546Z,12.95
2022-11-02T07:50:41.285Z,13.04
2022-11-02T07:53:08.943Z,13.14
2022-11-02T07:55:36.799Z,13.21
2022-11-02T07:58:08.982Z,13.28
2022-11-02T08:00:39.228Z,13.34
2022-11-02T08:03:08.902Z,13.43
2022-11-02T08:05:38.956Z,13.47
2022-11-02T08:08:25.567Z,13.53
2022-11-02T08:10:54.083Z,13.60
2022-11-02T08:13:24.932Z,13.67
2022-11-02T08:15:55.917Z,13.72
2022-11-02T08:18:25.928Z,13.74
2022-11-02T08:20:56.474Z,13.76
2022-11-02T08:23:24.632Z,13.78
2022-11-02T08:25:53.625Z,13.79
2022-11-02T08:28:27.279Z,13.80
2022-11-02T08:30:55.008Z,13.77
2022-11-02T08:33:22.669Z,13.77
2022-11-02T08:35:50.553Z,13.73
2022-11-02T08:38:19.372Z,13.71
2022-11-02T08:40:47.091Z,13.74
2022-11-02T08:43:15.789Z,13.71
2022-11-02T08:46:14.362Z,13.72
2022-11-02T08:48:33.753Z,13.68
2022-11-02T08:51:01.478Z,13.74
2022-11-02T08:53:29.204Z,13.82
2022-11-02T08:56:00.453Z,13.89
2022-11-02T08:58:28.096Z,13.94
2022-11-02T09:00:56.079Z,14.00
2022-11-02T09:03:27.355Z,13.95
2022-11-02T09:06:00.363Z,13.98
2022-11-02T09:08:28.980Z,13.95
2022-11-02T09:11:02.937Z,13.94
2022-11-02T09:13:31.242Z,14.00
2022-11-02T09:16:00.457Z,14.09
2022-11-02T09:18:28.261Z,14.18
2022-11-02T09:20:55.984Z,14.20
2022-11-02T09:23:24.180Z,14.30
2022-11-02T09:25:51.837Z,14.33
2022-11-02T09:28:19.583Z,14.36
2022-11-02T09:30:47.466Z,14.40
2022-11-02T09:33:15.126Z,14.44
2022-11-02T09:35:47.956Z,14.46
2022-11-02T09:38:17.270Z,14.48
2022-11-02T09:41:00.031Z,14.44
2022-11-02T09:44:05.806Z,14.41
2022-11-02T09:46:40.286Z,14.38
2022-11-02T09:49:20.073Z,14.29
2022-11-02T09:51:57.251Z,14.29
2022-11-02T09:54:30.265Z,14.29
2022-11-02T09:57:02.896Z,14.32
2022-11-02T09:59:30.757Z,14.35
2022-11-02T10:02:20.170Z,14.38
2022-11-02T10:05:25.056Z,14.41
2022-11-02T10:08:10.621Z,14.32
2022-11-02T10:10:43.076Z,14.33
2022-11-02T10:13:35.525Z,14.34
2022-11-02T10:16:19.382Z,14.38
2022-11-02T10:18:51.376Z,14.41
2022-11-02T10:21:27.188Z,14.41
2022-11-02T10:24:01.121Z,14.44
2022-11-02T10:26:33.254Z,14.47
2022-11-02T10:29:05.611Z,14.48
2022-11-02T10:31:36.228Z,14.42
2022-11-02T10:34:29.682Z,14.41
2022-11-02T10:37:29.896Z,14.42
2022-11-02T10:40:15.545Z,14.37
2022-11-02T10:43:11.174Z,14.37
2022-11-02T10:46:22.020Z,14.37
2022-11-02T10:48:52.610Z,14.37
2022-11-02T10:51:22.507Z,14.42
2022-11-02T10:53:53.021Z,14.42
2022-11-02T10:56:23.324Z,14.43
2022-11-02T10:59:03.933Z,14.46
2022-11-02T11:01:33.652Z,14.50
2022-11-02T11:04:20.670Z,14.50
2022-11-02T11:06:48.343Z,14.56
2022-11-02T11:09:33.438Z,14.56
2022-11-02T11:12:06.812Z,14.60
2022-11-02T11:20:41.025Z,14.81
2022-11-02T11:23:10.470Z,14.83
2022-11-02T11:25:38.108Z,14.83
2022-11-02T11:28:23.962Z,14.84
2022-11-02T11:31:04.658Z,14.82
2022-11-02T11:33:34.207Z,14.83
2022-11-02T11:36:02.093Z,14.84
2022-11-02T11:38:29.879Z,14.90
2022-11-02T11:41:00.601Z,14.92
2022-11-02T11:43:36.055Z,14.87
2022-11-02T11:46:09.487Z,14.88
2022-11-02T11:48:46.229Z,14.86
2022-11-02T11:51:43.431Z,14.85
2022-11-02T11:54:29.693Z,14.86
2022-11-02T11:57:23.766Z,14.82
2022-11-02T11:59:54.006Z,14.85
2022-11-02T12:02:42.812Z,14.87
2022-11-02T12:05:18.168Z,14.91
2022-11-02T12:08:03.756Z,14.92
2022-11-02T12:10:57.644Z,14.96
2022-11-02T12:13:49.186Z,14.92
2022-11-02T12:16:34.743Z,14.86
2022-11-02T12:19:37.395Z,14.85
2022-11-02T12:22:16.971Z,14.89
2022-11-02T12:25:10.892Z,14.92
2022-11-02T12:28:05.002Z,14.99
2022-11-02T12:31:10.866Z,15.04
2022-11-02T12:34:07.183Z,14.98
2022-11-02T12:37:18.078Z,14.93
2022-11-02T12:40:15.008Z,14.93
2022-11-02T12:43:02.889Z,14.99
2022-11-02T12:45:42.223Z,15.00
2022-11-02T12:48:16.007Z,15.04
2022-11-02T12:51:02.291Z,15.04
2022-11-02T12:53:38.726Z,15.07
2022-11-02T12:56:13.022Z,15.03
2022-11-02T12:58:42.433Z,15.06
2022-11-02T13:01:32.029Z,15.05
2022-11-02T13:04:05.844Z,15.00
2022-11-02T13:06:40.772Z,15.00
2022-11-02T13:09:14.373Z,14.92
2022-11-02T13:11:51.668Z,14.91
2022-11-02T13:14:21.825Z,14.83
2022-11-02T13:17:06.674Z,14.81
2022-11-02T13:20:00.359Z,14.83
2022-11-02T13:22:51.214Z,14.82
2022-11-02T13:25:35.462Z,14.76
2022-11-02T13:28:10.394Z,14.78
2022-11-02T13:30:41.452Z,14.77
2022-11-02T13:33:35.833Z,14.75
2022-11-02T13:36:03.640Z,14.76
2022-11-02T13:38:37.801Z,14.73
2022-11-02T13:41:11.114Z,14.71
2022-11-02T13:44:16.044Z,14.73
2022-11-02T13:47:00.127Z,14.71
2022-11-02T13:49:32.528Z,14.69
2022-11-02T13:52:17.004Z,14.67
2022-11-02T13:54:52.222Z,14.68
2022-11-02T13:57:37.452Z,14.69
2022-11-02T14:00:09.475Z,14.70
2022-11-02T14:02:42.697Z,14.71
2022-11-02T14:05:21.963Z,14.69
2022-11-02T14:07:51.366Z,14.67
2022-11-02T14:10:20.514Z,14.70
2022-11-02T14:12:51.724Z,14.64
2022-11-02T14:15:19.345Z,14.62
2022-11-02T14:18:10.182Z,14.60
2022-11-02T14:20:39.697Z,14.61
2022-11-02T14:23:10.227Z,14.61
2022-11-02T14:25:46.574Z,14.59
2022-11-02T14:28:26.811Z,14.59
2022-11-02T14:31:06.687Z,14.58
2022-11-02T14:34:05.062Z,14.59
2022-11-02T14:36:51.241Z,14.59
2022-11-02T14:39:31.832Z,14.55
2022-11-02T14:42:09.593Z,14.54
2022-11-02T14:44:49.244Z,14.50
2022-11-02T14:47:19.906Z,14.51
2022-11-02T14:49:53.313Z,14.49
2022-11-02T14:52:31.640Z,14.49
2022-11-02T14:55:26.404Z,14.46
2022-11-02T14:58:18.553Z,14.44
2022-11-02T15:00:49.279Z,14.41
2022-11-02T15:03:26.275Z,14.38
2022-11-02T15:06:21.865Z,14.34
2022-11-02T15:08:51.331Z,14.30
2022-11-02T15:11:48.531Z,14.29
2022-11-02T15:14:34.647Z,14.27
2022-11-02T15:17:25.711Z,14.22
2022-11-02T15:19:59.020Z,14.19
2022-11-02T15:22:32.472Z,14.17
2022-11-02T15:25:05.208Z,14.14
2022-11-02T15:27:35.268Z,14.14
2022-11-02T15:30:04.430Z,14.08
2022-11-02T15:32:39.407Z,14.03
2022-11-02T15:35:14.333Z,14.00
2022-11-02T15:38:03.477Z,13.96
2022-11-02T15:40:46.329Z,13.91
2022-11-02T15:43:51.076Z,13.84
2022-11-02T15:46:32.240Z,13.77
2022-11-02T15:49:17.989Z,13.71
2022-11-02T15:52:06.240Z,13.67
2022-11-02T15:54:46.102Z,13.59
2022-11-02T15:57:49.971Z,13.54
2022-11-02T16:00:22.860Z,13.47
2022-11-02T16:02:53.066Z,13.40
2022-11-02T16:05:25.874Z,13.36
2022-11-02T16:08:11.788Z,13.30
2022-11-02T16:10:40.029Z,13.26
2022-11-02T16:13:20.621Z,13.21
2022-11-02T16:15:50.099Z,13.16
2022-11-02T16:18:38.151Z,13.14
2022-11-02T16:21:08.102Z,13.10
2022-11-02T16:23:38.367Z,13.06
2022-11-02T16:26:12.045Z,13.02
2022-11-02T16:28:40.093Z,12.98
2022-11-02T16:31:17.797Z,12.94
2022-11-02T16:33:57.384Z,12.91
2022-11-02T16:36:28.286Z,12.88
2022-11-02T16:38:58.916Z,12.84
2022-11-02T16:41:28.591Z,12.82
2022-11-02T16:43:58.524Z,12.79
2022-11-02T16:46:32.941Z,12.78
2022-11-02T16:49:17.861Z,12.74
2022-11-02T16:51:54.249Z,12.70
2022-11-02T16:54:40.516Z,12.65
2022-11-02T16:57:16.476Z,12.62
2022-11-02T16:59:50.543Z,12.60
2022-11-02T17:02:19.563Z,12.55
2022-11-02T17:04:48.556Z,12.51
2022-11-02T17:07:24.124Z,12.48
2022-11-02T17:09:58.515Z,12.43
2022-11-02T17:12:43.367Z,12.36
2022-11-02T17:15:23.165Z,12.30
2022-11-02T17:17:51.061Z,12.24
2022-11-02T17:20:25.249Z,12.19
2022-11-02T17:23:07.144Z,12.13
2022-11-02T17:25:41.635Z,12.07
2022-11-02T17:28:45.008Z,12.04
2022-11-02T17:31:24.522Z,11.93
2022-11-02T17:33:53.895Z,11.89
2022-11-02T17:36:23.009Z,11.86
2022-11-02T17:38:50.823Z,11.79
2022-11-02T17:41:38.520Z,11.74
2022-11-02T17:44:16.492Z,11.68
2022-11-02T17:46:46.140Z,11.59
2022-11-02T17:49:14.015Z,11.53
2022-11-02T17:51:41.945Z,11.49
2022-11-02T17:54:14.353Z,11.38
2022-11-02T17:56:42.626Z,11.33
2022-11-02T17:59:10.370Z,11.28
2022-11-02T18:01:38.252Z,11.23
2022-11-02T18:04:06.061Z,11.16
2022-11-02T18:06:33.708Z,11.11
2022-11-02T18:09:13.107Z,11.07
2022-11-02T18:11:41.278Z,11.01
2022-11-02T18:14:14.337Z,10.96
2022-11-02T18:16:41.968Z,10.94
2022-11-02T18:19:09.710Z,10.95
2022-11-02T18:21:37.584Z,10.93
2022-11-02T18:24:05.365Z,10.92
2022-11-02T18:26:33.032Z,10.92
2022-11-02T18:29:02.648Z,10.91
2022-11-02T18:31:30.306Z,10.87
2022-11-02T18:33:59.033Z,10.85
2022-11-02T18:36:26.765Z,10.83
2022-11-02T18:38:54.552Z,10.87
2022-11-02T18:41:31.840Z,10.84
2022-11-02T18:44:05.648Z,10.84
2022-11-02T18:46:35.630Z,10.81
2022-11-02T18:49:03.400Z,10.82
2022-11-02T18:51:31.027Z,10.80
2022-11-02T18:54:01.033Z,10.81
2022-11-02T18:56:29.144Z,10.79
2022-11-02T18:58:57.655Z,10.77
2022-11-02T19:01:26.280Z,10.74
2022-11-02T19:04:01.665Z,10.76
2022-11-02T19:06:50.562Z,10.74
2022-11-02T19:09:21.464Z,10.72
2022-11-02T19:11:54.741Z,10.66
2022-11-02T19:14:23.502Z,10.59
2022-11-02T19:16:51.243Z,10.57
2022-11-02T19:19:18.952Z,10.55
2022-11-02T19:21:46.594Z,10.51
2022-11-02T19:24:14.520Z,10.48
2022-11-02T19:26:42.482Z,10.46
2022-11-02T19:29:10.113Z,10.44
2022-11-02T19:31:37.896Z,10.39
2022-11-02T19:34:06.142Z,10.38
2022-11-02T19:36:34.027Z,10.37
2022-11-02T19:39:04.364Z,10.34
2022-11-02T19:41:32.468Z,10.28
2022-11-02T19:44:00.126Z,10.26
2022-11-02T19:46:28.492Z,10.23
2022-11-02T19:49:00.510Z,10.17
2022-11-02T19:51:30.747Z,10.12
2022-11-02T19:54:00.596Z,10.09
2022-11-02T19:56:30.157Z,10.06
2022-11-02T19:58:58.341Z,10.06
2022-11-02T20:01:28.796Z,10.05
2022-11-02T20:03:57.176Z,10.08
2022-11-02T20:06:27.441Z,10.07
2022-11-02T20:08:58.060Z,10.07
2022-11-02T20:11:29.891Z,10.07
2022-11-02T20:14:02.299Z,10.03
2022-11-02T20:16:30.718Z,9.99
2022-11-02T20:18:58.695Z,9.95
2022-11-02T20:21:34.212Z,9.94
2022-11-02T20:24:03.475Z,9.87
2022-11-02T20:26:33.915Z,9.79
2022-11-02T20:29:03.260Z,9.70
2022-11-02T20:31:33.421Z,9.69
2022-11-02T20:34:01.645Z,9.70
2022-11-02T20:36:30.052Z,9.64
2022-11-02T20:38:58.032Z,9.62
2022-11-02T20:41:27.156Z,9.64
2022-11-02T20:43:58.711Z,9.63
2022-11-02T20:46:37.554Z,9.63
2022-11-02T20:49:20.035Z,9.61
2022-11-02T20:51:54.000Z,9.62
2022-11-02T20:54:23.303Z,9.64
2022-11-02T20:56:51.542Z,9.64
2022-11-02T20:59:19.298Z,9.63
2022-11-02T21:01:47.044Z,9.61
2022-11-02T21:04:20.232Z,9.55
2022-11-02T21:06:52.938Z,9.52
2022-11-02T21:12:07.377Z,9.45
2022-11-02T21:14:35.042Z,9.42
2022-11-02T21:17:03.871Z,9.41
2022-11-02T21:19:31.766Z,9.43
2022-11-02T21:22:00.665Z,9.46
2022-11-02T21:24:29.850Z,9.44
2022-11-02T21:26:57.874Z,9.45
2022-11-02T21:29:25.905Z,9.45
2022-11-02T21:31:53.678Z,9.48
2022-11-02T21:34:21.418Z,9.45
2022-11-02T21:36:49.681Z,9.42
2022-11-02T21:39:17.327Z,9.40
2022-11-02T21:41:45.065Z,9.38
2022-11-02T21:44:13.111Z,9.33
2022-11-02T21:46:40.787Z,9.28
2022-11-02T21:49:08.608Z,9.23
2022-11-02T21:51:37.185Z,9.16
2022-11-02T21:54:05.042Z,9.15
2022-11-02T21:56:32.993Z,9.14
2022-11-02T21:59:00.889Z,9.17
2022-11-02T22:01:46.913Z,9.19
2022-11-02T22:04:26.387Z,9.24
2022-11-02T22:06:54.323Z,9.25
2022-11-02T22:09:22.456Z,9.23
2022-11-02T22:12:10.102Z,9.25
2022-11-02T22:14:42.515Z,9.21
2022-11-02T22:17:22.137Z,9.23
2022-11-02T22:19:58.418Z,9.23
2022-11-02T22:22:26.117Z,9.21
2022-11-02T22:24:53.745Z,9.14
2022-11-02T22:27:21.341Z,9.07
2022-11-02T22:29:48.967Z,9.06
2022-11-02T22:32:16.774Z,9.04
2022-11-02T22:34:44.882Z,9.06
2022-11-02T22:37:31.213Z,9.07
2022-11-02T22:39:58.821Z,9.10
2022-11-02T22:42:26.421Z,9.12
2022-11-02T22:44:56.225Z,9.16
2022-11-02T22:47:23.827Z,9.18
2022-11-02T22:49:51.489Z,9.20
2022-11-02T22:52:19.130Z,9.20
2022-11-02T22:54:46.784Z,9.17
2022-11-02T22:57:14.445Z,9.17
2022-11-02T22:59:42.047Z,9.19
2022-11-02T23:02:09.755Z,9.19
2022-11-02T23:04:37.382Z,9.21
2022-11-02T23:07:04.971Z,9.22
2022-11-02T23:09:32.584Z,9.21
2022-11-02T23:12:00.228Z,9.21
2022-11-02T23:14:27.889Z,9.24
2022-11-02T23:16:55.582Z,9.24
2022-11-02T23:19:29.017Z,9.18
2022-11-02T23:22:20.613Z,9.10
2022-11-02T23:25:08.158Z,9.03
2022-11-02T23:28:00.757Z,8.92
2022-11-02T23:30:55.373Z,8.91
2022-11-02T23:33:24.923Z,8.91
2022-11-02T23:36:10.892Z,8.87
2022-11-02T23:38:57.915Z,8.88
2022-11-02T23:41:26.250Z,8.86
2022-11-02T23:44:12.556Z,8.87
2022-11-02T23:46:40.358Z,8.89
2022-11-02T23:49:07.987Z,8.86
2022-11-02T23:51:54.278Z,8.85
2022-11-02T23:54:40.784Z,8.86
2022-11-02T23:57:08.500Z,8.91
2022-11-02T23:59:36.207Z,8.91
